Terminal Aerodrome Forecast
Issued by NWS

Home | Current Version | Previous Version | Text Only | Print | Product List | Glossary On
Versions: 1 2 3 4 5 6 7 8 9 10 11 12 13 14 15
000
FTUS46 KSEW 010500
TAFCLM
TAF
KCLM 010529Z 0106/0206 27007KT P6SM SCT030 BKN080
     FM010900 27005KT P6SM BKN025 BKN040
     FM011200 30005KT P6SM OVC020
     FM011700 32005KT P6SM BKN040
     FM020200 29007KT P6SM OVC040=

USA.gov is the U.S. government's official web portal to all federal, state and local government web resources and services.